createdAt,value
2024-01-28T00:00:13.243Z,77.22
2024-01-28T00:02:41.717Z,77.41
2024-01-28T00:05:12.809Z,77.35
2024-01-28T00:07:41.511Z,77.09
2024-01-28T00:10:10.733Z,77.67
2024-01-28T00:12:39.653Z,77.40
2024-01-28T00:15:08.962Z,77.56
2024-01-28T00:17:38.772Z,76.43
2024-01-28T00:20:08.518Z,76.26
2024-01-28T00:22:36.061Z,76.20
2024-01-28T00:25:05.395Z,77.00
2024-01-28T00:27:33.819Z,76.84
2024-01-28T00:30:02.408Z,76.21
2024-01-28T00:32:30.816Z,76.58
2024-01-28T00:35:00.697Z,76.51
2024-01-28T00:37:29.221Z,76.67
2024-01-28T00:39:57.766Z,76.35
2024-01-28T00:42:26.552Z,76.08
2024-01-28T00:44:54.935Z,76.52
2024-01-28T00:47:23.462Z,76.55
2024-01-28T00:49:52.091Z,76.46
2024-01-28T00:52:21.988Z,77.01
2024-01-28T00:54:50.587Z,77.63
2024-01-28T00:57:19.053Z,78.15
2024-01-28T00:59:47.430Z,77.92
2024-01-28T01:02:15.826Z,77.30
2024-01-28T01:04:44.492Z,77.39
2024-01-28T01:07:13.089Z,76.68
2024-01-28T01:09:43.174Z,77.01
2024-01-28T01:12:11.658Z,77.76
2024-01-28T01:14:40.113Z,77.71
2024-01-28T01:17:08.516Z,77.89
2024-01-28T01:19:36.969Z,77.49
2024-01-28T01:22:05.719Z,76.82
2024-01-28T01:24:34.237Z,77.05
2024-01-28T01:27:04.537Z,77.04
2024-01-28T01:29:32.983Z,77.33
2024-01-28T01:32:01.552Z,77.62
2024-01-28T01:34:30.061Z,77.30
2024-01-28T01:36:58.556Z,78.00
2024-01-28T01:39:26.952Z,77.50
2024-01-28T01:41:55.350Z,78.30
2024-01-28T01:44:31.523Z,79.34
2024-01-28T01:47:00.475Z,80.16
2024-01-28T01:49:29.885Z,79.96
2024-01-28T01:51:58.293Z,80.70
2024-01-28T01:54:27.002Z,80.69
2024-01-28T01:56:55.569Z,81.24
2024-01-28T01:59:26.364Z,81.80
2024-01-28T02:01:56.366Z,81.53
2024-01-28T02:04:25.236Z,80.41
2024-01-28T02:06:54.026Z,80.86
2024-01-28T02:09:22.747Z,80.51
2024-01-28T02:11:52.241Z,80.32
2024-01-28T02:14:25.890Z,80.61
2024-01-28T02:16:54.328Z,79.87
2024-01-28T02:19:22.749Z,79.76
2024-01-28T02:21:51.207Z,79.47
2024-01-28T02:24:21.081Z,79.78
2024-01-28T02:26:49.479Z,79.69
2024-01-28T02:29:17.815Z,80.44
2024-01-28T02:31:47.148Z,80.36
2024-01-28T02:34:15.846Z,80.07
2024-01-28T02:36:44.403Z,81.23
2024-01-28T02:39:12.866Z,82.24
2024-01-28T02:41:42.667Z,81.83
2024-01-28T02:44:11.036Z,82.37
2024-01-28T02:46:39.407Z,82.37
2024-01-28T02:49:07.952Z,82.99
2024-01-28T02:51:36.419Z,83.68
2024-01-28T02:54:05.123Z,83.89
2024-01-28T02:56:33.535Z,83.98
2024-01-28T02:59:04.583Z,84.67
2024-01-28T03:01:33.020Z,84.89
2024-01-28T03:04:01.635Z,85.33
2024-01-28T03:06:30.160Z,85.52
2024-01-28T03:08:58.655Z,85.47
2024-01-28T03:11:27.007Z,85.86
2024-01-28T03:13:55.395Z,85.97
2024-01-28T03:16:25.863Z,86.25
2024-01-28T03:18:54.261Z,86.63
2024-01-28T03:21:22.702Z,86.46
2024-01-28T03:23:51.082Z,86.81
2024-01-28T03:26:20.605Z,86.69
2024-01-28T03:28:49.065Z,86.62
2024-01-28T03:31:19.224Z,86.56
2024-01-28T03:33:49.118Z,86.73
2024-01-28T03:36:18.116Z,86.60
2024-01-28T03:38:46.494Z,86.02
2024-01-28T03:41:15.739Z,86.16
2024-01-28T03:43:46.446Z,85.69
2024-01-28T03:46:14.971Z,85.99
2024-01-28T03:48:43.559Z,85.52
2024-01-28T03:51:14.692Z,85.21
2024-01-28T03:53:43.215Z,85.31
2024-01-28T03:56:11.625Z,85.78
2024-01-28T03:58:40.072Z,85.09
2024-01-28T04:01:09.507Z,84.89
2024-01-28T04:03:38.689Z,85.75
2024-01-28T04:06:07.299Z,85.80
2024-01-28T04:08:37.097Z,85.53
2024-01-28T04:11:06.973Z,85.95
2024-01-28T04:13:35.377Z,86.41
2024-01-28T04:16:03.750Z,86.03
2024-01-28T04:18:32.283Z,86.13
2024-01-28T04:21:00.731Z,85.95
2024-01-28T04:23:29.095Z,86.95
2024-01-28T04:25:58.815Z,86.50
2024-01-28T04:28:27.196Z,86.76
2024-01-28T04:30:55.642Z,86.73
2024-01-28T04:33:24.207Z,86.94
2024-01-28T04:35:53.046Z,86.62
2024-01-28T04:38:21.443Z,86.48
2024-01-28T04:40:52.510Z,86.74
2024-01-28T04:43:23.196Z,87.40
2024-01-28T04:45:51.594Z,87.71
2024-01-28T04:48:21.082Z,87.43
2024-01-28T04:50:49.493Z,88.06
2024-01-28T04:53:18.380Z,87.95
2024-01-28T04:55:46.867Z,88.63
2024-01-28T04:58:15.210Z,87.88
2024-01-28T05:00:45.007Z,88.30
2024-01-28T05:03:13.826Z,87.93
2024-01-28T05:05:42.426Z,87.85
2024-01-28T05:08:10.958Z,87.18
2024-01-28T05:10:40.350Z,86.78
2024-01-28T05:13:08.844Z,86.35
2024-01-28T05:15:37.258Z,85.98
2024-01-28T05:18:07.560Z,86.25
2024-01-28T05:20:36.028Z,87.01
2024-01-28T05:23:04.437Z,86.70
2024-01-28T05:25:33.362Z,87.10
2024-01-28T05:28:01.808Z,86.86
2024-01-28T05:30:30.923Z,87.24
2024-01-28T05:32:59.809Z,87.15
2024-01-28T05:35:31.748Z,86.74
2024-01-28T05:38:00.641Z,86.80
2024-01-28T05:40:29.004Z,86.44
2024-01-28T05:42:57.319Z,86.79
2024-01-28T05:45:25.854Z,87.18
2024-01-28T05:47:54.253Z,87.21
2024-01-28T05:50:22.589Z,87.06
2024-01-28T05:52:52.323Z,86.47
2024-01-28T05:55:20.672Z,87.49
2024-01-28T05:57:49.101Z,87.60
2024-01-28T06:00:18.501Z,87.54
2024-01-28T06:02:46.929Z,87.35
2024-01-28T06:05:15.489Z,87.46
2024-01-28T06:07:43.894Z,88.12
2024-01-28T06:10:14.143Z,88.35
2024-01-28T06:12:42.614Z,88.62
2024-01-28T06:15:11.929Z,88.13
2024-01-28T06:17:40.560Z,88.38
2024-01-28T06:20:10.266Z,88.68
2024-01-28T06:22:38.796Z,88.77
2024-01-28T06:25:08.915Z,88.48
2024-01-28T06:27:38.665Z,88.79
2024-01-28T06:30:08.459Z,88.96
2024-01-28T06:32:37.554Z,89.11
2024-01-28T06:35:06.541Z,89.67
2024-01-28T06:37:34.931Z,89.34
2024-01-28T06:40:03.918Z,89.15
2024-01-28T06:42:33.307Z,89.75
2024-01-28T06:45:03.320Z,89.60
2024-01-28T06:47:31.845Z,89.76
2024-01-28T06:50:00.420Z,89.65
2024-01-28T06:52:28.767Z,90.06
2024-01-28T06:54:57.342Z,89.39
2024-01-28T06:57:25.863Z,89.61
2024-01-28T06:59:54.290Z,89.37
2024-01-28T07:02:26.163Z,89.70
2024-01-28T07:04:54.573Z,89.91
2024-01-28T07:07:24.099Z,89.35
2024-01-28T07:09:52.578Z,89.61
2024-01-28T07:12:21.065Z,89.61
2024-01-28T07:14:49.462Z,89.78
2024-01-28T07:17:17.930Z,89.73
2024-01-28T07:19:47.652Z,89.21
2024-01-28T07:22:16.108Z,89.41
2024-01-28T07:24:44.494Z,88.82
2024-01-28T07:27:12.880Z,87.59
2024-01-28T07:29:43.186Z,87.18
2024-01-28T07:32:14.649Z,86.65
2024-01-28T07:34:43.100Z,86.75
2024-01-28T07:37:12.851Z,87.27
2024-01-28T07:39:41.281Z,87.53
2024-01-28T07:42:09.690Z,87.56
2024-01-28T07:44:38.051Z,87.66
2024-01-28T07:47:06.496Z,87.61
2024-01-28T07:49:34.982Z,87.86
2024-01-28T07:52:03.436Z,87.76
2024-01-28T07:54:33.216Z,87.78
2024-01-28T07:57:01.564Z,87.57
2024-01-28T07:59:29.946Z,87.99
2024-01-28T08:01:58.609Z,87.66
2024-01-28T08:04:29.415Z,88.10
2024-01-28T08:06:57.864Z,87.74
2024-01-28T08:09:26.369Z,87.27
2024-01-28T08:11:56.115Z,87.54
2024-01-28T08:14:28.561Z,87.26
2024-01-28T08:16:57.347Z,86.89
2024-01-28T08:19:25.971Z,87.43
2024-01-28T08:21:54.657Z,86.99
2024-01-28T08:24:23.084Z,86.43
2024-01-28T08:26:51.691Z,87.16
2024-01-28T08:29:21.450Z,87.03
2024-01-28T08:31:49.854Z,86.91
2024-01-28T08:34:18.284Z,86.75
2024-01-28T08:36:46.754Z,87.20
2024-01-28T08:39:15.561Z,87.19
2024-01-28T08:41:44.324Z,87.51
2024-01-28T08:44:12.988Z,86.98
2024-01-28T08:46:42.802Z,86.63
2024-01-28T08:49:11.295Z,86.41
2024-01-28T08:51:39.813Z,85.89
2024-01-28T08:54:08.317Z,85.70
2024-01-28T08:56:36.756Z,85.78
2024-01-28T08:59:05.152Z,85.46
2024-01-28T09:01:33.574Z,84.83
2024-01-28T09:04:03.685Z,84.79
2024-01-28T09:06:32.489Z,84.61
2024-01-28T09:09:04.713Z,84.74
2024-01-28T09:11:33.482Z,84.22
2024-01-28T09:14:02.415Z,83.65
2024-01-28T09:16:30.839Z,82.73
2024-01-28T09:18:59.476Z,82.98
2024-01-28T09:21:29.371Z,82.92
2024-01-28T09:23:58.169Z,82.17
2024-01-28T09:26:26.980Z,82.03
2024-01-28T09:28:55.828Z,82.24
2024-01-28T09:31:24.324Z,82.52
2024-01-28T09:33:52.914Z,81.99
2024-01-28T09:36:21.375Z,81.76
2024-01-28T09:38:51.085Z,81.35
2024-01-28T09:41:33.618Z,81.10
2024-01-28T09:44:02.043Z,79.91
2024-01-28T09:46:31.147Z,79.28
2024-01-28T09:49:01.458Z,78.81
2024-01-28T09:51:30.386Z,79.01
2024-01-28T09:54:00.796Z,78.55
2024-01-28T09:56:29.710Z,77.59
2024-01-28T09:58:58.302Z,77.73
2024-01-28T10:01:27.902Z,76.67
2024-01-28T10:03:56.753Z,77.01
2024-01-28T10:06:25.915Z,75.90
2024-01-28T10:08:54.422Z,76.45
2024-01-28T10:11:24.221Z,75.80
2024-01-28T10:13:54.480Z,75.46
2024-01-28T10:16:25.186Z,74.17
2024-01-28T10:18:53.796Z,74.46
2024-01-28T10:21:22.367Z,73.95
2024-01-28T10:23:50.780Z,72.74
2024-01-28T10:26:19.279Z,71.91
2024-01-28T10:28:49.105Z,71.57
2024-01-28T10:31:18.671Z,71.04
2024-01-28T10:33:47.313Z,71.08
2024-01-28T10:36:18.721Z,69.11
2024-01-28T10:38:48.137Z,68.09
2024-01-28T10:41:18.499Z,65.86
2024-01-28T10:43:58.246Z,64.77
2024-01-28T10:46:35.083Z,64.34
2024-01-28T10:49:06.367Z,63.76
2024-01-28T10:51:37.193Z,62.33
2024-01-28T10:54:06.066Z,63.34
2024-01-28T10:56:34.627Z,63.51
2024-01-28T10:59:04.708Z,63.88
2024-01-28T11:01:36.021Z,63.46
2024-01-28T11:04:06.132Z,63.54
2024-01-28T11:06:34.889Z,63.44
2024-01-28T11:09:04.495Z,63.53
2024-01-28T11:11:33.012Z,62.73
2024-01-28T11:14:09.294Z,62.16
2024-01-28T11:16:39.466Z,61.81
2024-01-28T11:19:10.961Z,63.07
2024-01-28T11:21:40.122Z,62.33
2024-01-28T11:24:10.637Z,62.68
2024-01-28T11:26:42.589Z,62.35
2024-01-28T11:29:14.454Z,63.56
2024-01-28T11:31:43.891Z,62.43
2024-01-28T11:34:16.527Z,62.67
2024-01-28T11:36:47.189Z,61.50
2024-01-28T11:39:17.247Z,60.98
2024-01-28T11:41:46.994Z,60.95
2024-01-28T11:44:16.839Z,60.29
2024-01-28T11:46:46.387Z,60.20
2024-01-28T11:49:14.953Z,60.29
2024-01-28T11:51:43.441Z,60.69
2024-01-28T11:54:11.954Z,59.94
2024-01-28T11:56:43.202Z,60.88
2024-01-28T11:59:12.607Z,60.12
2024-01-28T12:01:42.581Z,59.40
2024-01-28T12:04:11.320Z,58.99
2024-01-28T12:06:40.230Z,59.12
2024-01-28T12:09:08.740Z,58.91
2024-01-28T12:11:38.622Z,58.30
2024-01-28T12:14:07.550Z,57.37
2024-01-28T12:16:37.529Z,58.09
2024-01-28T12:19:08.507Z,58.15
2024-01-28T12:21:39.656Z,58.53
2024-01-28T12:24:12.026Z,59.66
2024-01-28T12:26:44.629Z,59.09
2024-01-28T12:29:14.112Z,59.16
2024-01-28T12:31:42.655Z,60.52
2024-01-28T12:34:17.932Z,61.64
2024-01-28T12:36:46.789Z,61.92
2024-01-28T12:39:15.434Z,60.86
2024-01-28T12:41:44.042Z,61.06
2024-01-28T12:44:12.399Z,61.10
2024-01-28T12:46:40.867Z,59.13
2024-01-28T12:49:12.705Z,58.79
2024-01-28T12:51:44.727Z,58.47
2024-01-28T12:54:13.955Z,57.71
2024-01-28T12:56:42.552Z,57.20
2024-01-28T12:59:10.990Z,55.76
2024-01-28T13:01:39.562Z,55.21
2024-01-28T13:04:08.345Z,55.91
2024-01-28T13:06:37.019Z,55.87
2024-01-28T13:09:10.415Z,54.68
2024-01-28T13:11:39.232Z,53.05
2024-01-28T13:14:07.804Z,54.13
2024-01-28T13:16:37.809Z,53.14
2024-01-28T13:19:06.599Z,52.97
2024-01-28T13:21:35.364Z,52.48
2024-01-28T13:24:05.924Z,51.78
2024-01-28T13:26:35.761Z,50.98
2024-01-28T13:29:04.556Z,51.15
2024-01-28T13:31:32.964Z,50.36
2024-01-28T13:34:01.463Z,50.39
2024-01-28T13:36:30.062Z,50.37
2024-01-28T13:38:58.727Z,51.87
2024-01-28T13:41:27.083Z,51.29
2024-01-28T13:43:56.836Z,50.54
2024-01-28T13:46:25.317Z,51.58
2024-01-28T13:48:54.209Z,50.11
2024-01-28T13:51:24.898Z,51.25
2024-01-28T13:53:53.398Z,52.25
2024-01-28T13:56:22.554Z,52.34
2024-01-28T13:58:51.026Z,50.69
2024-01-28T14:01:20.930Z,51.83
2024-01-28T14:03:49.567Z,50.83
2024-01-28T14:06:17.170Z,50.88
2024-01-28T14:08:45.735Z,51.05
2024-01-28T14:11:14.658Z,52.15
2024-01-28T14:13:43.082Z,52.25
2024-01-28T14:16:11.521Z,52.67
2024-01-28T14:18:41.347Z,52.88
2024-01-28T14:21:09.804Z,51.63
2024-01-28T14:23:39.213Z,51.32
2024-01-28T14:26:07.611Z,52.47
2024-01-28T14:28:36.040Z,51.85
2024-01-28T14:31:04.695Z,52.79
2024-01-28T14:33:33.214Z,52.09
2024-01-28T14:36:03.363Z,52.47
2024-01-28T14:38:31.782Z,53.24
2024-01-28T14:41:00.158Z,53.34
2024-01-28T14:43:28.585Z,54.26
2024-01-28T14:46:00.093Z,53.63
2024-01-28T14:48:29.093Z,54.33
2024-01-28T14:50:57.986Z,55.06
2024-01-28T14:53:27.945Z,55.06
2024-01-28T14:55:56.470Z,55.42
2024-01-28T14:58:24.865Z,55.48
2024-01-28T15:00:53.572Z,55.79
2024-01-28T15:03:22.147Z,56.73
2024-01-28T15:05:50.750Z,57.10
2024-01-28T15:08:19.128Z,57.54
2024-01-28T15:10:48.990Z,57.87
2024-01-28T15:13:17.407Z,58.78
2024-01-28T15:15:45.878Z,59.10
2024-01-28T15:18:14.584Z,59.64
2024-01-28T15:20:43.102Z,60.40
2024-01-28T15:23:11.958Z,60.66
2024-01-28T15:25:40.680Z,60.88
2024-01-28T15:28:17.786Z,61.19
2024-01-28T15:30:54.411Z,61.68
2024-01-28T15:33:24.581Z,61.91
2024-01-28T15:35:53.814Z,62.10
2024-01-28T15:38:22.442Z,62.49
2024-01-28T15:40:50.862Z,62.94
2024-01-28T15:43:20.663Z,63.12
2024-01-28T15:45:51.513Z,63.04
2024-01-28T15:48:20.689Z,63.74
2024-01-28T15:50:49.298Z,63.67
2024-01-28T15:53:17.713Z,63.32
2024-01-28T15:55:46.177Z,63.92
2024-01-28T15:58:14.905Z,64.05
2024-01-28T16:00:44.735Z,64.03
2024-01-28T16:03:13.421Z,64.16
2024-01-28T16:05:42.353Z,64.33
2024-01-28T16:08:13.333Z,64.43
2024-01-28T16:10:41.778Z,64.66
2024-01-28T16:13:10.465Z,65.01
2024-01-28T16:15:39.335Z,65.25
2024-01-28T16:18:09.756Z,65.63
2024-01-28T16:20:38.105Z,65.89
2024-01-28T16:23:06.920Z,65.84
2024-01-28T16:25:35.388Z,65.99
2024-01-28T16:28:04.321Z,66.18
2024-01-28T16:30:32.890Z,66.23
2024-01-28T16:33:01.289Z,66.45
2024-01-28T16:35:33.369Z,66.55
2024-01-28T16:38:01.722Z,66.81
2024-01-28T16:40:30.102Z,67.20
2024-01-28T16:43:02.422Z,67.21
2024-01-28T16:45:30.923Z,67.46
2024-01-28T16:48:00.077Z,67.55
2024-01-28T16:50:28.614Z,67.86
2024-01-28T16:52:59.831Z,68.46
2024-01-28T16:55:31.778Z,68.33
2024-01-28T16:58:01.809Z,68.52
2024-01-28T17:00:30.346Z,68.68
2024-01-28T17:02:58.978Z,69.00
2024-01-28T17:05:28.557Z,69.18
2024-01-28T17:07:58.508Z,69.31
2024-01-28T17:10:29.698Z,69.55
2024-01-28T17:13:01.517Z,69.57
2024-01-28T17:15:31.883Z,70.33
2024-01-28T17:18:00.502Z,70.26
2024-01-28T17:20:29.031Z,70.51
2024-01-28T17:22:59.115Z,70.72
2024-01-28T17:25:27.564Z,70.86
2024-01-28T17:27:56.009Z,71.16
2024-01-28T17:30:24.759Z,71.11
2024-01-28T17:32:53.191Z,71.10
2024-01-28T17:35:21.771Z,71.30
2024-01-28T17:37:50.290Z,70.99
2024-01-28T17:40:20.140Z,71.43
2024-01-28T17:42:48.614Z,71.44
2024-01-28T17:45:17.878Z,71.84
2024-01-28T17:47:48.094Z,71.96
2024-01-28T17:50:16.989Z,72.02
2024-01-28T17:52:45.762Z,72.12
2024-01-28T17:55:14.492Z,72.28
2024-01-28T17:57:44.288Z,72.33
2024-01-28T18:00:13.586Z,72.59
2024-01-28T18:02:42.114Z,72.52
2024-01-28T18:05:11.165Z,73.22
2024-01-28T18:07:39.832Z,73.47
2024-01-28T18:10:09.345Z,73.54
2024-01-28T18:12:38.268Z,73.49
2024-01-28T18:15:09.818Z,73.82
2024-01-28T18:17:38.587Z,73.84
2024-01-28T18:20:07.866Z,74.33
2024-01-28T18:22:38.081Z,74.45
2024-01-28T18:25:07.240Z,74.50
2024-01-28T18:27:36.373Z,74.45
2024-01-28T18:30:05.501Z,75.10
2024-01-28T18:32:35.326Z,74.84
2024-01-28T18:35:05.798Z,75.41
2024-01-28T18:37:34.979Z,75.32
2024-01-28T18:40:04.911Z,75.81
2024-01-28T18:42:33.516Z,75.90
2024-01-28T18:45:01.937Z,76.05
2024-01-28T18:47:30.394Z,76.14
2024-01-28T18:50:00.431Z,76.37
2024-01-28T18:52:29.460Z,76.34
2024-01-28T18:54:58.046Z,76.22
2024-01-28T18:57:26.558Z,76.45
2024-01-28T18:59:55.064Z,76.35
2024-01-28T19:02:23.477Z,76.30
2024-01-28T19:04:51.929Z,76.41
2024-01-28T19:07:21.736Z,76.67
2024-01-28T19:09:50.246Z,77.05
2024-01-28T19:12:19.267Z,77.00
2024-01-28T19:14:48.367Z,76.84
2024-01-28T19:17:19.000Z,76.96
2024-01-28T19:19:48.508Z,77.04
2024-01-28T19:22:17.102Z,76.94
2024-01-28T19:24:46.934Z,76.91
2024-01-28T19:27:15.463Z,77.16
2024-01-28T19:29:45.504Z,77.27
2024-01-28T19:32:14.017Z,77.07
2024-01-28T19:34:42.645Z,77.54
2024-01-28T19:37:11.107Z,77.41
2024-01-28T19:39:41.057Z,77.52
2024-01-28T19:42:11.193Z,77.66
2024-01-28T19:44:39.634Z,77.47
2024-01-28T19:47:09.567Z,78.29
2024-01-28T19:49:38.271Z,77.78
2024-01-28T19:52:07.767Z,78.17
2024-01-28T19:54:36.356Z,77.99
2024-01-28T19:57:05.145Z,77.99
2024-01-28T19:59:35.027Z,78.09
2024-01-28T20:02:03.483Z,78.48
2024-01-28T20:04:31.992Z,77.69
2024-01-28T20:07:00.473Z,78.07
2024-01-28T20:09:29.020Z,78.17
2024-01-28T20:11:58.414Z,78.12
2024-01-28T20:14:26.814Z,78.09
2024-01-28T20:16:56.619Z,78.49
2024-01-28T20:19:25.143Z,78.55
2024-01-28T20:21:54.479Z,78.34
2024-01-28T20:24:23.341Z,78.29
2024-01-28T20:26:51.844Z,78.49
2024-01-28T20:29:20.798Z,78.24
2024-01-28T20:31:49.263Z,78.18
2024-01-28T20:34:20.683Z,78.07
2024-01-28T20:36:49.674Z,78.02
2024-01-28T20:39:18.152Z,77.98
2024-01-28T20:41:48.551Z,77.52
2024-01-28T20:44:17.008Z,77.36
2024-01-28T20:46:45.359Z,77.16
2024-01-28T20:49:13.840Z,77.20
2024-01-28T20:51:43.953Z,77.06
2024-01-28T20:54:15.007Z,77.22
2024-01-28T20:56:43.462Z,77.01
2024-01-28T20:59:12.225Z,76.89
2024-01-28T21:01:40.566Z,76.83
2024-01-28T21:04:09.153Z,76.46
2024-01-28T21:06:37.631Z,76.57
2024-01-28T21:09:07.651Z,75.99
2024-01-28T21:11:36.031Z,75.45
2024-01-28T21:14:04.933Z,75.68
2024-01-28T21:16:33.521Z,75.56
2024-01-28T21:19:01.969Z,75.37
2024-01-28T21:23:59.021Z,75.45
2024-01-28T21:26:28.789Z,75.31
2024-01-28T21:28:57.279Z,74.62
2024-01-28T21:31:25.729Z,74.99
2024-01-28T21:33:55.143Z,74.74
2024-01-28T21:36:24.130Z,75.02
2024-01-28T21:38:52.664Z,74.47
2024-01-28T21:41:21.184Z,74.32
2024-01-28T21:43:50.988Z,74.27
2024-01-28T21:46:19.559Z,73.58
2024-01-28T21:48:48.021Z,73.39
2024-01-28T21:51:18.718Z,73.29
2024-01-28T21:53:49.109Z,73.32
2024-01-28T21:56:17.577Z,73.17
2024-01-28T21:58:45.966Z,73.21
2024-01-28T22:01:15.828Z,73.34
2024-01-28T22:03:45.482Z,73.19
2024-01-28T22:06:13.912Z,72.25
2024-01-28T22:08:42.344Z,72.95
2024-01-28T22:11:10.853Z,72.52
2024-01-28T22:13:39.351Z,72.75
2024-01-28T22:16:08.349Z,73.20
2024-01-28T22:18:39.088Z,73.93
2024-01-28T22:21:07.533Z,73.52
2024-01-28T22:23:35.890Z,73.16
2024-01-28T22:26:04.602Z,73.24
2024-01-28T22:28:33.763Z,72.85
2024-01-28T22:31:02.196Z,72.98
2024-01-28T22:33:30.799Z,73.16
2024-01-28T22:36:00.603Z,73.29
2024-01-28T22:38:29.013Z,73.50
2024-01-28T22:40:57.455Z,73.83
2024-01-28T22:43:26.682Z,73.47
2024-01-28T22:45:55.332Z,73.92
2024-01-28T22:48:23.881Z,74.00
2024-01-28T22:50:52.560Z,73.99
2024-01-28T22:53:22.375Z,73.82
2024-01-28T22:55:50.724Z,74.08
2024-01-28T22:58:19.083Z,74.32
2024-01-28T23:00:48.712Z,74.34
2024-01-28T23:03:18.598Z,74.35
2024-01-28T23:05:47.095Z,74.06
2024-01-28T23:08:15.702Z,74.00
2024-01-28T23:10:45.488Z,74.69
2024-01-28T23:13:14.145Z,74.90
2024-01-28T23:15:42.658Z,74.70
2024-01-28T23:18:11.353Z,75.15
2024-01-28T23:20:39.814Z,74.81
2024-01-28T23:23:08.212Z,75.25
2024-01-28T23:25:36.569Z,75.07
2024-01-28T23:28:06.710Z,74.96
2024-01-28T23:30:36.449Z,75.31
2024-01-28T23:33:05.732Z,75.50
2024-01-28T23:35:34.144Z,75.62
2024-01-28T23:38:02.538Z,75.83
2024-01-28T23:40:31.029Z,76.02
2024-01-28T23:43:00.930Z,75.73
2024-01-28T23:45:31.001Z,75.75
2024-01-28T23:47:59.578Z,75.79
2024-01-28T23:50:27.931Z,75.73
2024-01-28T23:52:56.739Z,75.79
2024-01-28T23:55:25.111Z,76.67
2024-01-28T23:57:53.546Z,76.24
